Aérodrome :
LOGIN :

S'inscrire | Disclaimer

   EN    FR    IT 

 










Légende :    VFR   VFR Marginal   IFR   IFR Intensif   IFR Très Intensif
Visi : 
Plafond : 
>= 8 km
>= 3000ft
5 à 8 km
1000 à 3000 ft
1500m à 5 km
500 à 1000 ft
800 à 1500m
200 à 500 ft
< 800m
< 200 ft
Symboles :   Orages  Brouillard  Fortes neiges  Fortes précipitations  Vent > 20 kt
SIGMETs :   Divers  Orages  Givrage  Turbulence  Onde Orograph.  Cendres Volcan.






- Altitude de l'aérodrome : 466 ft


LHPA - Pápa

DERNIER METAR :
  • 180315Z 16006KT CAVOK 11/10 Q1016 NOSIG RMK BLU

METARs EXPIRÉS :
  • 180245Z 17006KT CAVOK 12/10 Q1016 NOSIG RMK BLU
  • 180215Z 17006KT CAVOK 13/10 Q1016 NOSIG RMK BLU
  • 180145Z 18006KT CAVOK 13/10 Q1016 NOSIG RMK BLU
  • 180115Z 18006KT 150V210 CAVOK 13/10 Q1016 NOSIG RMK BLU
  • 180045Z 17006KT CAVOK 13/10 Q1016 NOSIG RMK BLU

TAF TAF LHPA
Valide du 18 à 00h jusqu'au 19 à 00h UTC


172315Z 1800/1824 16007KT 9999 MIBCFG NSC
TEMPO 1800/1808 5000 BR MIBCFG SCT005
PROB40
TEMPO 1800/1807 1500 BR BKN003
BECMG 1806/1809 22007KT
BECMG 1808/1811 SCT015 BKN200
BECMG 1811/1814 CAVOK
TEMPO 1814/1819 VRB03KT
TEMPO 1819/1824 5000 BR MIBCFG NSC



MET'MAP, la Météo Aéronautique d'un coup d'oeil ! - Copyright ORBIFLY Décembre 2007 - Disclaimer

ORBIFLY MET'MAP TEAM :

Programmation & Développement : Alexandra Zaïnal
Conception & Développement : Baudouin d'Aumeries
Co-Programmation & Développement : Marc-Olivier Méhu
Soutien technique & logistique : Manuel Goepfert

Contact : metmap@orbifly.com




SOURCES & CREDITS :

   NOAA